Time;durP1;ratioP1;P1;durP2;ratioP2;P2;SDS_P1;SDS_P2;PMS_P1;PMS_P2;Temp;Humidity;BMP_temperature;BMP_pressure;BME280_temperature;BME280_humidity;BME280_pressure;Samples;Min_cycle;Max_cycle;Signal;HPM_P1;HPM_P2
2022/10/18 18:32:34;;;;;;;;;;;15.70;99.90;;;;;;2617920;46;20366;-71
2022/10/18 19:16:50;;;;;;;;;;;17.50;99.90;;;;;;2624762;46;20983;-71
2022/10/18 19:19:21;;;;;;;;;;;17.00;99.90;;;;;;2626732;47;19939;-71
2022/10/18 19:21:51;;;;;;;;;;;17.00;99.90;;;;;;2626427;54;19950;-72
2022/10/18 19:24:22;;;;;;;;;;;17.00;99.90;;;;;;2625107;47;20468;-74
2022/10/18 19:26:52;;;;;;;;;;;17.00;99.90;;;;;;2625387;47;19950;-71
2022/10/18 19:29:23;;;;;;;;;;;17.10;99.90;;;;;;2616713;47;20004;-72
2022/10/18 19:31:56;;;;;;;;;;;17.00;99.90;;;;;;2619042;54;19958;-72
2022/10/18 19:34:26;;;;;;;;;;;16.90;99.90;;;;;;2617228;54;19947;-72
2022/10/18 19:36:56;;;;;;;;;;;16.90;99.90;;;;;;2616493;54;20030;-71
2022/10/18 19:39:26;;;;;;;;;;;16.90;99.90;;;;;;2616739;47;19967;-71
2022/10/18 19:41:57;;;;;;;;;;;16.90;99.90;;;;;;2617023;54;19947;-72
2022/10/18 19:44:27;;;;;;;;;;;16.90;99.90;;;;;;2615638;54;19977;-71
2022/10/18 19:46:59;;;;;;;;;;;16.80;99.90;;;;;;2616815;47;19989;-72
2022/10/18 19:49:29;;;;;;;;;;;16.80;99.90;;;;;;2615972;47;19959;-71
2022/10/18 19:51:59;;;;;;;;;;;16.80;99.90;;;;;;2616193;54;19954;-72
2022/10/18 19:54:28;;;;;;;;;;;16.80;99.90;;;;;;2616786;54;19962;-72
2022/10/18 19:56:58;;;;;;;;;;;16.70;99.90;;;;;;2617159;54;19997;-72
2022/10/18 19:59:28;;;;;;;;;;;16.70;99.90;;;;;;2616786;47;19954;-71
2022/10/18 20:02:00;;;;;;;;;;;16.70;99.90;;;;;;2616911;46;19954;-70
2022/10/18 20:04:33;;;;;;;;;;;16.70;99.90;;;;;;2617094;54;19951;-72
2022/10/18 20:07:03;;;;;;;;;;;16.70;99.90;;;;;;2617054;47;19946;-71
2022/10/18 20:09:32;;;;;;;;;;;16.60;99.90;;;;;;2616801;51;19954;-72
2022/10/18 20:12:02;;;;;;;;;;;16.60;99.90;;;;;;2618059;47;19958;-72
2022/10/18 20:14:31;;;;;;;;;;;16.60;99.90;;;;;;2616816;54;20456;-72
2022/10/18 20:17:04;;;;;;;;;;;16.60;99.90;;;;;;2617016;46;19955;-73
2022/10/18 20:19:34;;;;;;;;;;;16.50;99.90;;;;;;2617656;54;19978;-72
2022/10/18 20:22:03;;;;;;;;;;;16.50;99.90;;;;;;2617786;47;19954;-72
2022/10/18 20:24:33;;;;;;;;;;;16.50;99.90;;;;;;2625260;54;19946;-73
2022/10/18 20:27:02;;;;;;;;;;;16.50;99.90;;;;;;2626636;54;19939;-71
2022/10/18 20:29:34;;;;;;;;;;;16.50;99.90;;;;;;2617773;54;20796;-72
2022/10/18 20:32:07;;;;;;;;;;;16.40;99.90;;;;;;2618234;47;20525;-72
2022/10/18 20:34:37;;;;;;;;;;;16.40;99.90;;;;;;2617646;54;19943;-71
2022/10/18 20:37:06;;;;;;;;;;;16.40;99.90;;;;;;2618031;54;20456;-72
2022/10/18 20:39:36;;;;;;;;;;;16.40;99.90;;;;;;2617571;46;20038;-72
2022/10/18 20:42:05;;;;;;;;;;;16.40;99.90;;;;;;2615402;54;19977;-72
2022/10/18 20:44:37;;;;;;;;;;;16.40;99.90;;;;;;2616246;47;19954;-72
2022/10/18 20:47:09;;;;;;;;;;;16.30;99.90;;;;;;2617756;54;19947;-71
2022/10/18 20:49:39;;;;;;;;;;;16.30;99.90;;;;;;2616944;47;19962;-73
2022/10/18 20:52:08;;;;;;;;;;;16.30;99.90;;;;;;2623531;54;19946;-71
2022/10/18 20:54:38;;;;;;;;;;;16.30;99.90;;;;;;2617417;54;19958;-71
2022/10/18 20:57:07;;;;;;;;;;;16.30;99.90;;;;;;2619573;54;19955;-71
2022/10/18 20:59:37;;;;;;;;;;;16.30;99.90;;;;;;2618589;51;19955;-72
2022/10/18 21:02:06;;;;;;;;;;;16.20;99.90;;;;;;2620052;47;19946;-71
2022/10/18 21:04:38;;;;;;;;;;;16.20;99.90;;;;;;2621203;54;19955;-72
2022/10/18 21:07:10;;;;;;;;;;;16.20;99.90;;;;;;2620914;54;19954;-72
2022/10/18 21:09:40;;;;;;;;;;;16.20;99.90;;;;;;2619333;47;20049;-71
2022/10/18 21:12:09;;;;;;;;;;;16.10;99.90;;;;;;2618660;54;19954;-71
2022/10/18 21:14:59;;;;;;;;;;;16.10;99.90;;;;;;2619165;39;20341;-71
2022/10/18 21:17:28;;;;;;;;;;;16.10;99.90;;;;;;2617717;54;19973;-71
2022/10/18 21:20:01;;;;;;;;;;;16.10;99.90;;;;;;2617747;54;20433;-71
2022/10/18 21:22:30;;;;;;;;;;;16.10;99.90;;;;;;2619601;51;20340;-71
2022/10/18 21:25:00;;;;;;;;;;;16.10;99.90;;;;;;2621591;54;19947;-71
2022/10/18 21:27:29;;;;;;;;;;;16.10;99.90;;;;;;2618472;47;20002;-72
2022/10/18 21:29:59;;;;;;;;;;;16.10;99.90;;;;;;2618146;54;19954;-71
2022/10/18 21:32:28;;;;;;;;;;;16.10;99.90;;;;;;2617848;54;19951;-71
2022/10/18 21:35:01;;;;;;;;;;;16.00;99.90;;;;;;2617306;51;19953;-71
2022/10/18 21:37:31;;;;;;;;;;;16.00;99.90;;;;;;2618165;54;19994;-72
2022/10/18 21:40:00;;;;;;;;;;;16.00;99.90;;;;;;2617962;47;20006;-71
2022/10/18 21:42:30;;;;;;;;;;;16.00;99.90;;;;;;2622943;54;19938;-71
2022/10/18 21:44:59;;;;;;;;;;;16.00;99.90;;;;;;2626597;47;19947;-72
2022/10/18 21:47:29;;;;;;;;;;;16.00;99.90;;;;;;2624408;54;19951;-72
2022/10/18 21:50:01;;;;;;;;;;;16.00;99.90;;;;;;2623145;47;20012;-71
2022/10/18 21:52:31;;;;;;;;;;;16.00;99.90;;;;;;2620253;54;20001;-71
2022/10/18 21:55:01;;;;;;;;;;;16.00;99.90;;;;;;2620103;54;19939;-71
2022/10/18 21:57:31;;;;;;;;;;;16.00;99.90;;;;;;2618550;54;19962;-71
2022/10/18 22:00:00;;;;;;;;;;;15.90;99.90;;;;;;2618272;54;20050;-71
2022/10/18 22:02:30;;;;;;;;;;;15.90;99.90;;;;;;2618590;39;20346;-71
2022/10/18 22:05:02;;;;;;;;;;;15.90;99.90;;;;;;2621447;54;19953;-71
2022/10/18 22:07:38;;;;;;;;;;;15.90;99.90;;;;;;2622846;39;20360;-71
2022/10/18 22:10:08;;;;;;;;;;;16.00;99.90;;;;;;2618483;54;19962;-71
2022/10/18 22:12:37;;;;;;;;;;;16.00;99.90;;;;;;2618646;47;19993;-71
2022/10/18 22:15:07;;;;;;;;;;;16.00;99.90;;;;;;2617962;54;19971;-71
2022/10/18 22:17:37;;;;;;;;;;;16.00;99.90;;;;;;2618450;54;19939;-71
2022/10/18 22:20:10;;;;;;;;;;;15.90;99.90;;;;;;2618195;54;19947;-71
2022/10/18 22:22:40;;;;;;;;;;;16.00;99.90;;;;;;2618472;39;20356;-71
2022/10/18 22:25:10;;;;;;;;;;;16.00;99.90;;;;;;2617718;54;19938;-71
2022/10/18 22:27:39;;;;;;;;;;;16.00;99.90;;;;;;2618399;46;19951;-71
2022/10/18 22:30:09;;;;;;;;;;;16.00;99.90;;;;;;2616984;54;20001;-71
2022/10/18 22:32:39;;;;;;;;;;;15.90;99.90;;;;;;2618252;51;19955;-71
2022/10/18 22:35:12;;;;;;;;;;;15.90;99.90;;;;;;2617709;51;19977;-71
2022/10/18 22:37:41;;;;;;;;;;;15.90;99.90;;;;;;2618175;47;20484;-70
2022/10/18 22:40:11;;;;;;;;;;;15.90;99.90;;;;;;2618129;39;20373;-71
2022/10/18 22:42:41;;;;;;;;;;;15.80;99.90;;;;;;2618064;54;19958;-71
2022/10/18 22:45:11;;;;;;;;;;;15.80;99.90;;;;;;2617774;54;19980;-71
2022/10/18 22:47:40;;;;;;;;;;;15.80;99.90;;;;;;2618380;46;20005;-71
2022/10/18 22:50:13;;;;;;;;;;;15.80;99.90;;;;;;2619389;54;19975;-71
2022/10/18 22:52:42;;;;;;;;;;;15.70;99.90;;;;;;2618718;54;19966;-71
2022/10/18 22:55:12;;;;;;;;;;;15.70;99.90;;;;;;2618892;39;20368;-72
2022/10/18 22:57:41;;;;;;;;;;;15.80;99.90;;;;;;2627494;51;19943;-71
2022/10/18 23:00:12;;;;;;;;;;;15.70;99.90;;;;;;2623974;51;19947;-72
2022/10/18 23:02:41;;;;;;;;;;;15.70;99.90;;;;;;2622819;47;19959;-71
2022/10/18 23:05:13;;;;;;;;;;;15.60;99.90;;;;;;2628739;54;19939;-73
2022/10/18 23:07:43;;;;;;;;;;;15.60;99.90;;;;;;2628698;54;19958;-73
2022/10/18 23:10:12;;;;;;;;;;;15.60;99.90;;;;;;2628009;54;19946;-72
2022/10/18 23:12:42;;;;;;;;;;;15.60;99.90;;;;;;2626394;47;19946;-73
2022/10/18 23:15:12;;;;;;;;;;;15.60;99.90;;;;;;2626402;54;19990;-72
2022/10/18 23:17:41;;;;;;;;;;;15.50;99.90;;;;;;2622732;47;19947;-70
2022/10/18 23:20:14;;;;;;;;;;;15.50;99.90;;;;;;2619863;47;19986;-71
2022/10/18 23:22:43;;;;;;;;;;;15.50;99.90;;;;;;2618933;54;19947;-70
2022/10/18 23:25:13;;;;;;;;;;;15.50;99.90;;;;;;2618431;54;19981;-70
2022/10/18 23:27:42;;;;;;;;;;;15.50;99.90;;;;;;2618444;47;19958;-70
2022/10/18 23:30:32;;;;;;;;;;;15.50;99.90;;;;;;2618260;54;19989;-70
2022/10/18 23:33:02;;;;;;;;;;;15.50;99.90;;;;;;2618471;54;19938;-70
2022/10/18 23:35:34;;;;;;;;;;;15.40;99.90;;;;;;2618842;39;20352;-70
2022/10/18 23:38:03;;;;;;;;;;;15.40;99.90;;;;;;2618627;47;19958;-71
2022/10/18 23:40:33;;;;;;;;;;;15.40;99.90;;;;;;2618106;39;21246;-72
2022/10/18 23:43:02;;;;;;;;;;;15.40;99.90;;;;;;2618776;51;20022;-70
2022/10/18 23:45:32;;;;;;;;;;;15.40;99.90;;;;;;2617630;54;20449;-71
2022/10/18 23:48:02;;;;;;;;;;;15.40;99.90;;;;;;2618414;54;20053;-70
2022/10/18 23:50:34;;;;;;;;;;;15.40;99.90;;;;;;2618017;54;20488;-71
2022/10/18 23:53:03;;;;;;;;;;;15.40;99.90;;;;;;2618209;39;20361;-70
2022/10/18 23:55:33;;;;;;;;;;;15.30;99.90;;;;;;2617964;47;19998;-71
2022/10/18 23:58:02;;;;;;;;;;;15.30;99.90;;;;;;2618281;47;19994;-71
